sensor_id;sensor_type;location;lat;lon;timestamp;temperature;humidity
8860;DHT22;4466;50.948;4.832;2023-12-20T00:01:50;6.70;99.90
8860;DHT22;4466;50.948;4.832;2023-12-20T00:04:16;6.70;99.90
8860;DHT22;4466;50.948;4.832;2023-12-20T00:06:41;6.60;99.90
8860;DHT22;4466;50.948;4.832;2023-12-20T00:09:07;6.60;99.90
8860;DHT22;4466;50.948;4.832;2023-12-20T00:11:32;6.60;99.90
8860;DHT22;4466;50.948;4.832;2023-12-20T00:13:58;6.50;99.90
8860;DHT22;4466;50.948;4.832;2023-12-20T00:16:24;6.50;99.90
8860;DHT22;4466;50.948;4.832;2023-12-20T00:18:49;6.50;99.90
8860;DHT22;4466;50.948;4.832;2023-12-20T00:21:15;6.50;99.90
8860;DHT22;4466;50.948;4.832;2023-12-20T00:23:40;6.40;99.90
8860;DHT22;4466;50.948;4.832;2023-12-20T00:26:06;6.40;99.90
8860;DHT22;4466;50.948;4.832;2023-12-20T00:28:32;6.40;99.90
8860;DHT22;4466;50.948;4.832;2023-12-20T00:30:58;6.40;99.90
8860;DHT22;4466;50.948;4.832;2023-12-20T00:33:23;6.40;99.90
8860;DHT22;4466;50.948;4.832;2023-12-20T00:35:49;6.40;99.90
8860;DHT22;4466;50.948;4.832;2023-12-20T00:38:15;6.50;99.90
8860;DHT22;4466;50.948;4.832;2023-12-20T00:40:40;6.40;99.90
8860;DHT22;4466;50.948;4.832;2023-12-20T00:43:06;6.40;99.90
8860;DHT22;4466;50.948;4.832;2023-12-20T00:45:31;6.40;99.90
8860;DHT22;4466;50.948;4.832;2023-12-20T00:47:57;6.30;99.90
8860;DHT22;4466;50.948;4.832;2023-12-20T00:50:24;6.20;99.90
8860;DHT22;4466;50.948;4.832;2023-12-20T00:52:50;6.20;99.90
8860;DHT22;4466;50.948;4.832;2023-12-20T00:55:15;6.10;99.90
8860;DHT22;4466;50.948;4.832;2023-12-20T00:57:41;6.10;99.90
8860;DHT22;4466;50.948;4.832;2023-12-20T01:00:09;6.00;99.90
8860;DHT22;4466;50.948;4.832;2023-12-20T01:02:39;6.00;99.90
8860;DHT22;4466;50.948;4.832;2023-12-20T01:05:06;6.00;99.90
8860;DHT22;4466;50.948;4.832;2023-12-20T01:07:32;6.00;99.90
8860;DHT22;4466;50.948;4.832;2023-12-20T01:09:58;6.00;99.90
8860;DHT22;4466;50.948;4.832;2023-12-20T01:12:24;6.00;99.90
8860;DHT22;4466;50.948;4.832;2023-12-20T01:14:49;6.00;99.90
8860;DHT22;4466;50.948;4.832;2023-12-20T01:17:15;5.90;99.90
8860;DHT22;4466;50.948;4.832;2023-12-20T01:19:40;6.00;99.90
8860;DHT22;4466;50.948;4.832;2023-12-20T01:22:06;5.90;99.90
8860;DHT22;4466;50.948;4.832;2023-12-20T01:24:32;6.00;99.90
8860;DHT22;4466;50.948;4.832;2023-12-20T01:26:58;5.90;99.90
8860;DHT22;4466;50.948;4.832;2023-12-20T01:29:23;5.90;99.90
8860;DHT22;4466;50.948;4.832;2023-12-20T01:31:49;5.90;99.90
8860;DHT22;4466;50.948;4.832;2023-12-20T01:34:15;5.80;99.90
8860;DHT22;4466;50.948;4.832;2023-12-20T01:36:41;5.80;99.90
8860;DHT22;4466;50.948;4.832;2023-12-20T01:39:07;5.80;99.90
8860;DHT22;4466;50.948;4.832;2023-12-20T01:41:33;5.80;99.90
8860;DHT22;4466;50.948;4.832;2023-12-20T01:43:59;5.90;99.90
8860;DHT22;4466;50.948;4.832;2023-12-20T01:46:24;5.80;99.90
8860;DHT22;4466;50.948;4.832;2023-12-20T01:48:51;5.80;99.90
8860;DHT22;4466;50.948;4.832;2023-12-20T01:51:17;5.80;99.90
8860;DHT22;4466;50.948;4.832;2023-12-20T01:53:43;5.80;99.90
8860;DHT22;4466;50.948;4.832;2023-12-20T01:56:10;5.70;99.90
8860;DHT22;4466;50.948;4.832;2023-12-20T01:58:40;5.70;99.90
8860;DHT22;4466;50.948;4.832;2023-12-20T02:01:07;5.70;99.90
8860;DHT22;4466;50.948;4.832;2023-12-20T02:03:33;5.60;99.90
8860;DHT22;4466;50.948;4.832;2023-12-20T02:06:00;5.70;99.90
8860;DHT22;4466;50.948;4.832;2023-12-20T02:08:26;5.70;99.90
8860;DHT22;4466;50.948;4.832;2023-12-20T02:10:51;5.70;99.90
8860;DHT22;4466;50.948;4.832;2023-12-20T02:15:53;5.60;99.90
8860;DHT22;4466;50.948;4.832;2023-12-20T02:18:19;5.60;99.90
8860;DHT22;4466;50.948;4.832;2023-12-20T02:20:45;5.60;99.90
8860;DHT22;4466;50.948;4.832;2023-12-20T02:23:10;5.60;99.90
8860;DHT22;4466;50.948;4.832;2023-12-20T02:25:36;5.60;99.90
8860;DHT22;4466;50.948;4.832;2023-12-20T02:28:03;5.60;99.90
8860;DHT22;4466;50.948;4.832;2023-12-20T02:30:29;5.60;99.90
8860;DHT22;4466;50.948;4.832;2023-12-20T02:32:55;5.50;99.90
8860;DHT22;4466;50.948;4.832;2023-12-20T02:35:21;5.50;99.90
8860;DHT22;4466;50.948;4.832;2023-12-20T02:37:46;5.50;99.90
8860;DHT22;4466;50.948;4.832;2023-12-20T02:40:12;5.50;99.90
8860;DHT22;4466;50.948;4.832;2023-12-20T02:42:38;5.60;99.90
8860;DHT22;4466;50.948;4.832;2023-12-20T02:45:04;5.60;99.90
8860;DHT22;4466;50.948;4.832;2023-12-20T02:47:31;5.70;99.90
8860;DHT22;4466;50.948;4.832;2023-12-20T02:49:56;5.70;99.90
8860;DHT22;4466;50.948;4.832;2023-12-20T02:52:25;5.80;99.90
8860;DHT22;4466;50.948;4.832;2023-12-20T02:54:51;5.90;99.90
8860;DHT22;4466;50.948;4.832;2023-12-20T02:57:16;5.90;99.90
8860;DHT22;4466;50.948;4.832;2023-12-20T02:59:42;6.00;99.90
8860;DHT22;4466;50.948;4.832;2023-12-20T03:02:08;6.00;99.90
8860;DHT22;4466;50.948;4.832;2023-12-20T03:04:33;6.00;99.90
8860;DHT22;4466;50.948;4.832;2023-12-20T03:06:59;6.10;99.90
8860;DHT22;4466;50.948;4.832;2023-12-20T03:09:24;6.10;99.90
8860;DHT22;4466;50.948;4.832;2023-12-20T03:11:50;6.00;99.90
8860;DHT22;4466;50.948;4.832;2023-12-20T03:14:16;6.00;99.90
8860;DHT22;4466;50.948;4.832;2023-12-20T03:16:41;6.10;99.90
8860;DHT22;4466;50.948;4.832;2023-12-20T03:19:07;6.10;99.90
8860;DHT22;4466;50.948;4.832;2023-12-20T03:21:33;6.20;99.90
8860;DHT22;4466;50.948;4.832;2023-12-20T03:23:58;6.20;99.90
8860;DHT22;4466;50.948;4.832;2023-12-20T03:26:24;6.20;99.90
8860;DHT22;4466;50.948;4.832;2023-12-20T03:28:49;6.20;99.90
8860;DHT22;4466;50.948;4.832;2023-12-20T03:31:15;6.30;99.90
8860;DHT22;4466;50.948;4.832;2023-12-20T03:33:41;6.40;99.90
8860;DHT22;4466;50.948;4.832;2023-12-20T03:36:06;6.30;99.90
8860;DHT22;4466;50.948;4.832;2023-12-20T03:38:32;6.40;99.90
8860;DHT22;4466;50.948;4.832;2023-12-20T03:40:58;6.50;99.90
8860;DHT22;4466;50.948;4.832;2023-12-20T03:43:23;6.50;99.90
8860;DHT22;4466;50.948;4.832;2023-12-20T03:45:49;6.50;99.90
8860;DHT22;4466;50.948;4.832;2023-12-20T03:48:14;6.50;99.90
8860;DHT22;4466;50.948;4.832;2023-12-20T03:50:40;6.60;99.90
8860;DHT22;4466;50.948;4.832;2023-12-20T03:53:06;6.60;99.90
8860;DHT22;4466;50.948;4.832;2023-12-20T03:55:31;6.60;99.90
8860;DHT22;4466;50.948;4.832;2023-12-20T03:57:57;6.60;99.90
8860;DHT22;4466;50.948;4.832;2023-12-20T04:00:22;6.60;99.90
8860;DHT22;4466;50.948;4.832;2023-12-20T04:02:48;6.60;99.90
8860;DHT22;4466;50.948;4.832;2023-12-20T04:05:15;6.60;99.90
8860;DHT22;4466;50.948;4.832;2023-12-20T04:07:43;6.60;99.90
8860;DHT22;4466;50.948;4.832;2023-12-20T04:10:09;6.60;99.90
8860;DHT22;4466;50.948;4.832;2023-12-20T04:12:35;6.60;99.90
8860;DHT22;4466;50.948;4.832;2023-12-20T04:15:01;6.70;99.90
8860;DHT22;4466;50.948;4.832;2023-12-20T04:17:28;6.60;99.90
8860;DHT22;4466;50.948;4.832;2023-12-20T04:19:54;6.60;99.90
8860;DHT22;4466;50.948;4.832;2023-12-20T04:22:20;6.60;99.90
8860;DHT22;4466;50.948;4.832;2023-12-20T04:24:45;6.60;99.90
8860;DHT22;4466;50.948;4.832;2023-12-20T04:27:11;6.60;99.90
8860;DHT22;4466;50.948;4.832;2023-12-20T04:29:38;6.50;99.90
8860;DHT22;4466;50.948;4.832;2023-12-20T04:32:05;6.40;99.90
8860;DHT22;4466;50.948;4.832;2023-12-20T04:34:30;6.40;99.90
8860;DHT22;4466;50.948;4.832;2023-12-20T04:36:56;6.30;99.90
8860;DHT22;4466;50.948;4.832;2023-12-20T04:39:22;6.30;99.90
8860;DHT22;4466;50.948;4.832;2023-12-20T04:41:47;6.30;99.90
8860;DHT22;4466;50.948;4.832;2023-12-20T04:44:13;6.20;99.90
8860;DHT22;4466;50.948;4.832;2023-12-20T04:46:39;6.20;99.90
8860;DHT22;4466;50.948;4.832;2023-12-20T04:49:05;6.30;99.90
8860;DHT22;4466;50.948;4.832;2023-12-20T04:51:33;6.20;99.90
8860;DHT22;4466;50.948;4.832;2023-12-20T04:56:28;6.20;99.90
8860;DHT22;4466;50.948;4.832;2023-12-20T04:58:54;6.20;99.90
8860;DHT22;4466;50.948;4.832;2023-12-20T05:01:19;6.10;99.90
8860;DHT22;4466;50.948;4.832;2023-12-20T05:03:46;6.10;99.90
8860;DHT22;4466;50.948;4.832;2023-12-20T05:06:11;6.10;99.90
8860;DHT22;4466;50.948;4.832;2023-12-20T05:11:05;6.20;99.90
8860;DHT22;4466;50.948;4.832;2023-12-20T05:13:31;6.20;99.90
8860;DHT22;4466;50.948;4.832;2023-12-20T05:15:57;6.30;99.90
8860;DHT22;4466;50.948;4.832;2023-12-20T05:18:22;6.30;99.90
8860;DHT22;4466;50.948;4.832;2023-12-20T05:20:50;6.20;99.90
8860;DHT22;4466;50.948;4.832;2023-12-20T05:23:15;6.30;99.90
8860;DHT22;4466;50.948;4.832;2023-12-20T05:25:42;6.30;99.90
8860;DHT22;4466;50.948;4.832;2023-12-20T05:28:08;6.20;99.90
8860;DHT22;4466;50.948;4.832;2023-12-20T05:30:33;6.20;99.90
8860;DHT22;4466;50.948;4.832;2023-12-20T05:32:59;6.20;99.90
8860;DHT22;4466;50.948;4.832;2023-12-20T05:35:25;6.10;99.90
8860;DHT22;4466;50.948;4.832;2023-12-20T05:37:53;6.00;99.90
8860;DHT22;4466;50.948;4.832;2023-12-20T05:40:19;5.90;99.90
8860;DHT22;4466;50.948;4.832;2023-12-20T05:42:45;5.90;99.90
8860;DHT22;4466;50.948;4.832;2023-12-20T05:45:10;5.90;99.90
8860;DHT22;4466;50.948;4.832;2023-12-20T05:47:36;5.90;99.90
8860;DHT22;4466;50.948;4.832;2023-12-20T05:50:02;5.80;99.90
8860;DHT22;4466;50.948;4.832;2023-12-20T05:52:28;5.80;99.90
8860;DHT22;4466;50.948;4.832;2023-12-20T05:54:53;5.80;99.90
8860;DHT22;4466;50.948;4.832;2023-12-20T05:57:19;5.90;99.90
8860;DHT22;4466;50.948;4.832;2023-12-20T05:59:45;5.80;99.90
8860;DHT22;4466;50.948;4.832;2023-12-20T06:02:10;5.80;99.90
8860;DHT22;4466;50.948;4.832;2023-12-20T06:04:36;5.80;99.90
8860;DHT22;4466;50.948;4.832;2023-12-20T06:07:02;5.80;99.90
8860;DHT22;4466;50.948;4.832;2023-12-20T06:09:28;5.80;99.90
8860;DHT22;4466;50.948;4.832;2023-12-20T06:11:55;5.80;99.90
8860;DHT22;4466;50.948;4.832;2023-12-20T06:14:23;5.90;99.90
8860;DHT22;4466;50.948;4.832;2023-12-20T06:16:49;5.90;99.90
8860;DHT22;4466;50.948;4.832;2023-12-20T06:19:14;6.00;99.90
8860;DHT22;4466;50.948;4.832;2023-12-20T06:21:41;6.00;99.90
8860;DHT22;4466;50.948;4.832;2023-12-20T06:24:06;6.00;99.90
8860;DHT22;4466;50.948;4.832;2023-12-20T06:26:32;6.10;99.90
8860;DHT22;4466;50.948;4.832;2023-12-20T06:28:57;6.10;99.90
8860;DHT22;4466;50.948;4.832;2023-12-20T06:31:23;6.10;99.90
8860;DHT22;4466;50.948;4.832;2023-12-20T06:33:49;6.20;99.90
8860;DHT22;4466;50.948;4.832;2023-12-20T06:36:23;6.20;99.90
8860;DHT22;4466;50.948;4.832;2023-12-20T06:38:48;6.20;99.90
8860;DHT22;4466;50.948;4.832;2023-12-20T06:43:50;6.20;99.90
8860;DHT22;4466;50.948;4.832;2023-12-20T06:46:16;6.20;99.90
8860;DHT22;4466;50.948;4.832;2023-12-20T06:48:42;6.20;99.90
8860;DHT22;4466;50.948;4.832;2023-12-20T06:51:12;6.30;99.90
8860;DHT22;4466;50.948;4.832;2023-12-20T06:53:38;6.20;99.90
8860;DHT22;4466;50.948;4.832;2023-12-20T06:56:04;6.10;99.90
8860;DHT22;4466;50.948;4.832;2023-12-20T06:58:29;6.10;99.90
8860;DHT22;4466;50.948;4.832;2023-12-20T07:00:55;6.00;99.90
8860;DHT22;4466;50.948;4.832;2023-12-20T07:03:21;6.00;99.90
8860;DHT22;4466;50.948;4.832;2023-12-20T07:05:46;5.90;99.90
8860;DHT22;4466;50.948;4.832;2023-12-20T07:08:12;5.90;99.90
8860;DHT22;4466;50.948;4.832;2023-12-20T07:10:39;5.90;99.90
8860;DHT22;4466;50.948;4.832;2023-12-20T07:13:05;5.80;99.90
8860;DHT22;4466;50.948;4.832;2023-12-20T07:15:31;5.80;99.90
8860;DHT22;4466;50.948;4.832;2023-12-20T07:17:57;5.80;99.90
8860;DHT22;4466;50.948;4.832;2023-12-20T07:20:25;5.80;99.90
8860;DHT22;4466;50.948;4.832;2023-12-20T07:22:50;5.80;99.90
8860;DHT22;4466;50.948;4.832;2023-12-20T07:25:16;5.70;99.90
8860;DHT22;4466;50.948;4.832;2023-12-20T07:27:42;5.80;99.90
8860;DHT22;4466;50.948;4.832;2023-12-20T07:30:08;5.70;99.90
8860;DHT22;4466;50.948;4.832;2023-12-20T07:32:34;5.80;99.90
8860;DHT22;4466;50.948;4.832;2023-12-20T07:34:59;5.80;99.90
8860;DHT22;4466;50.948;4.832;2023-12-20T07:37:25;5.70;99.90
8860;DHT22;4466;50.948;4.832;2023-12-20T07:39:51;5.70;99.90
8860;DHT22;4466;50.948;4.832;2023-12-20T07:42:16;5.80;99.90
8860;DHT22;4466;50.948;4.832;2023-12-20T07:44:42;5.80;99.90
8860;DHT22;4466;50.948;4.832;2023-12-20T07:47:08;5.80;99.90
8860;DHT22;4466;50.948;4.832;2023-12-20T07:49:33;5.80;99.90
8860;DHT22;4466;50.948;4.832;2023-12-20T07:51:59;5.80;99.90
8860;DHT22;4466;50.948;4.832;2023-12-20T07:54:25;5.80;99.90
8860;DHT22;4466;50.948;4.832;2023-12-20T07:56:50;5.80;99.90
8860;DHT22;4466;50.948;4.832;2023-12-20T07:59:16;5.80;99.90
8860;DHT22;4466;50.948;4.832;2023-12-20T08:01:42;5.80;99.90
8860;DHT22;4466;50.948;4.832;2023-12-20T08:04:08;5.80;99.90
8860;DHT22;4466;50.948;4.832;2023-12-20T08:06:33;5.80;99.90
8860;DHT22;4466;50.948;4.832;2023-12-20T08:08:59;5.80;99.90
8860;DHT22;4466;50.948;4.832;2023-12-20T08:11:25;5.90;99.90
8860;DHT22;4466;50.948;4.832;2023-12-20T08:13:50;5.90;99.90
8860;DHT22;4466;50.948;4.832;2023-12-20T08:16:16;5.90;99.90
8860;DHT22;4466;50.948;4.832;2023-12-20T08:18:43;5.90;99.90
8860;DHT22;4466;50.948;4.832;2023-12-20T08:21:09;5.90;99.90
8860;DHT22;4466;50.948;4.832;2023-12-20T08:23:34;5.90;99.90
8860;DHT22;4466;50.948;4.832;2023-12-20T08:26:07;5.90;99.90
8860;DHT22;4466;50.948;4.832;2023-12-20T08:28:33;5.90;99.90
8860;DHT22;4466;50.948;4.832;2023-12-20T08:31:00;5.80;99.90
8860;DHT22;4466;50.948;4.832;2023-12-20T08:33:25;5.90;99.90
8860;DHT22;4466;50.948;4.832;2023-12-20T08:35:51;6.00;99.90
8860;DHT22;4466;50.948;4.832;2023-12-20T08:38:16;6.00;99.90
8860;DHT22;4466;50.948;4.832;2023-12-20T08:40:43;6.10;99.90
8860;DHT22;4466;50.948;4.832;2023-12-20T08:45:42;6.40;99.90
8860;DHT22;4466;50.948;4.832;2023-12-20T08:48:07;6.50;99.90
8860;DHT22;4466;50.948;4.832;2023-12-20T08:50:33;6.50;99.90
8860;DHT22;4466;50.948;4.832;2023-12-20T08:52:59;6.50;99.90
8860;DHT22;4466;50.948;4.832;2023-12-20T08:55:24;6.40;99.90
8860;DHT22;4466;50.948;4.832;2023-12-20T08:57:52;6.40;99.90
8860;DHT22;4466;50.948;4.832;2023-12-20T09:00:18;6.40;99.90
8860;DHT22;4466;50.948;4.832;2023-12-20T09:02:46;6.30;99.90
8860;DHT22;4466;50.948;4.832;2023-12-20T09:05:11;6.30;99.90
8860;DHT22;4466;50.948;4.832;2023-12-20T09:07:37;6.30;99.90
8860;DHT22;4466;50.948;4.832;2023-12-20T09:10:03;6.30;99.90
8860;DHT22;4466;50.948;4.832;2023-12-20T09:12:29;6.40;99.90
8860;DHT22;4466;50.948;4.832;2023-12-20T09:14:54;6.40;99.90
8860;DHT22;4466;50.948;4.832;2023-12-20T09:17:20;6.50;99.90
8860;DHT22;4466;50.948;4.832;2023-12-20T09:19:48;6.50;99.90
8860;DHT22;4466;50.948;4.832;2023-12-20T09:22:14;6.60;99.90
8860;DHT22;4466;50.948;4.832;2023-12-20T09:24:39;6.60;99.90
8860;DHT22;4466;50.948;4.832;2023-12-20T09:27:05;6.60;99.90
8860;DHT22;4466;50.948;4.832;2023-12-20T09:29:32;6.60;99.90
8860;DHT22;4466;50.948;4.832;2023-12-20T09:31:57;6.60;99.90
8860;DHT22;4466;50.948;4.832;2023-12-20T09:34:23;6.80;99.90
8860;DHT22;4466;50.948;4.832;2023-12-20T09:36:49;6.80;99.90
8860;DHT22;4466;50.948;4.832;2023-12-20T09:39:16;6.80;99.90
8860;DHT22;4466;50.948;4.832;2023-12-20T09:41:58;6.80;99.90
8860;DHT22;4466;50.948;4.832;2023-12-20T09:44:25;6.90;99.90
8860;DHT22;4466;50.948;4.832;2023-12-20T09:46:52;6.90;99.90
8860;DHT22;4466;50.948;4.832;2023-12-20T09:49:19;7.00;99.90
8860;DHT22;4466;50.948;4.832;2023-12-20T09:51:47;7.00;99.90
8860;DHT22;4466;50.948;4.832;2023-12-20T09:54:17;7.00;99.90
8860;DHT22;4466;50.948;4.832;2023-12-20T09:56:43;7.00;99.90
8860;DHT22;4466;50.948;4.832;2023-12-20T09:59:09;7.00;99.90
8860;DHT22;4466;50.948;4.832;2023-12-20T10:01:35;7.10;99.90
8860;DHT22;4466;50.948;4.832;2023-12-20T10:04:06;7.00;99.90
8860;DHT22;4466;50.948;4.832;2023-12-20T10:06:36;7.10;99.90
8860;DHT22;4466;50.948;4.832;2023-12-20T10:09:02;7.10;99.90
8860;DHT22;4466;50.948;4.832;2023-12-20T10:11:29;7.20;99.90
8860;DHT22;4466;50.948;4.832;2023-12-20T10:14:01;7.20;99.90
8860;DHT22;4466;50.948;4.832;2023-12-20T10:16:27;7.20;99.90
8860;DHT22;4466;50.948;4.832;2023-12-20T10:18:54;7.20;99.90
8860;DHT22;4466;50.948;4.832;2023-12-20T10:21:21;7.20;99.90
8860;DHT22;4466;50.948;4.832;2023-12-20T10:23:51;7.30;99.90
8860;DHT22;4466;50.948;4.832;2023-12-20T10:26:23;7.30;99.90
8860;DHT22;4466;50.948;4.832;2023-12-20T10:28:56;7.40;99.90
8860;DHT22;4466;50.948;4.832;2023-12-20T10:31:32;7.50;99.90
8860;DHT22;4466;50.948;4.832;2023-12-20T10:34:00;7.50;99.90
8860;DHT22;4466;50.948;4.832;2023-12-20T10:36:27;7.50;99.90
8860;DHT22;4466;50.948;4.832;2023-12-20T10:38:54;7.60;99.90
8860;DHT22;4466;50.948;4.832;2023-12-20T10:41:27;7.60;99.90
8860;DHT22;4466;50.948;4.832;2023-12-20T10:44:02;7.60;99.90
8860;DHT22;4466;50.948;4.832;2023-12-20T10:46:29;7.60;99.90
8860;DHT22;4466;50.948;4.832;2023-12-20T10:48:58;7.60;99.90
8860;DHT22;4466;50.948;4.832;2023-12-20T10:51:25;7.60;99.90
8860;DHT22;4466;50.948;4.832;2023-12-20T10:53:55;7.70;99.90
8860;DHT22;4466;50.948;4.832;2023-12-20T10:56:22;7.70;99.90
8860;DHT22;4466;50.948;4.832;2023-12-20T10:58:49;7.70;99.90
8860;DHT22;4466;50.948;4.832;2023-12-20T11:01:17;7.70;99.90
8860;DHT22;4466;50.948;4.832;2023-12-20T11:03:50;7.70;99.90
8860;DHT22;4466;50.948;4.832;2023-12-20T11:06:54;7.80;99.90
8860;DHT22;4466;50.948;4.832;2023-12-20T11:09:39;7.80;99.90
8860;DHT22;4466;50.948;4.832;2023-12-20T11:12:15;7.90;99.90
8860;DHT22;4466;50.948;4.832;2023-12-20T11:17:11;7.90;99.90
8860;DHT22;4466;50.948;4.832;2023-12-20T11:22:29;8.00;99.90
8860;DHT22;4466;50.948;4.832;2023-12-20T11:24:59;8.00;99.90
8860;DHT22;4466;50.948;4.832;2023-12-20T11:27:27;8.00;99.90
8860;DHT22;4466;50.948;4.832;2023-12-20T11:29:56;8.10;99.90
8860;DHT22;4466;50.948;4.832;2023-12-20T11:34:59;8.10;99.90
8860;DHT22;4466;50.948;4.832;2023-12-20T11:37:34;8.00;99.90
8860;DHT22;4466;50.948;4.832;2023-12-20T11:40:07;7.90;99.90
8860;DHT22;4466;50.948;4.832;2023-12-20T11:42:42;7.90;99.90
8860;DHT22;4466;50.948;4.832;2023-12-20T11:45:13;7.90;99.90
8860;DHT22;4466;50.948;4.832;2023-12-20T11:47:45;7.90;99.90
8860;DHT22;4466;50.948;4.832;2023-12-20T11:50:11;8.00;99.90
8860;DHT22;4466;50.948;4.832;2023-12-20T11:52:37;8.00;99.90
8860;DHT22;4466;50.948;4.832;2023-12-20T11:55:03;8.00;99.90
8860;DHT22;4466;50.948;4.832;2023-12-20T11:57:29;8.00;99.90
8860;DHT22;4466;50.948;4.832;2023-12-20T11:59:55;8.00;99.90
8860;DHT22;4466;50.948;4.832;2023-12-20T12:02:21;7.90;99.90
8860;DHT22;4466;50.948;4.832;2023-12-20T12:04:48;7.90;99.90
8860;DHT22;4466;50.948;4.832;2023-12-20T12:07:14;7.90;99.90
8860;DHT22;4466;50.948;4.832;2023-12-20T12:09:40;7.90;99.90
8860;DHT22;4466;50.948;4.832;2023-12-20T12:12:06;7.90;99.90
8860;DHT22;4466;50.948;4.832;2023-12-20T12:14:32;7.90;99.90
8860;DHT22;4466;50.948;4.832;2023-12-20T12:16:58;7.90;99.90
8860;DHT22;4466;50.948;4.832;2023-12-20T12:19:24;7.90;99.90
8860;DHT22;4466;50.948;4.832;2023-12-20T12:21:51;8.00;99.90
8860;DHT22;4466;50.948;4.832;2023-12-20T12:24:20;8.00;99.90
8860;DHT22;4466;50.948;4.832;2023-12-20T12:26:51;8.10;99.90
8860;DHT22;4466;50.948;4.832;2023-12-20T12:29:17;8.10;99.90
8860;DHT22;4466;50.948;4.832;2023-12-20T12:31:42;8.10;99.90
8860;DHT22;4466;50.948;4.832;2023-12-20T12:34:08;8.20;99.90
8860;DHT22;4466;50.948;4.832;2023-12-20T12:36:34;8.20;99.90
8860;DHT22;4466;50.948;4.832;2023-12-20T12:39:02;8.10;99.90
8860;DHT22;4466;50.948;4.832;2023-12-20T12:41:30;8.20;99.90
8860;DHT22;4466;50.948;4.832;2023-12-20T12:43:55;8.10;99.90
8860;DHT22;4466;50.948;4.832;2023-12-20T12:46:21;8.10;99.90
8860;DHT22;4466;50.948;4.832;2023-12-20T12:48:47;8.20;99.90
8860;DHT22;4466;50.948;4.832;2023-12-20T12:51:13;8.20;99.90
8860;DHT22;4466;50.948;4.832;2023-12-20T12:53:39;8.20;99.90
8860;DHT22;4466;50.948;4.832;2023-12-20T12:56:06;8.20;99.90
8860;DHT22;4466;50.948;4.832;2023-12-20T12:58:32;8.30;99.90
8860;DHT22;4466;50.948;4.832;2023-12-20T13:01:04;8.30;99.90
8860;DHT22;4466;50.948;4.832;2023-12-20T13:03:30;8.40;99.90
8860;DHT22;4466;50.948;4.832;2023-12-20T13:05:56;8.30;99.90
8860;DHT22;4466;50.948;4.832;2023-12-20T13:08:21;8.30;99.90
8860;DHT22;4466;50.948;4.832;2023-12-20T13:10:47;8.40;99.90
8860;DHT22;4466;50.948;4.832;2023-12-20T13:13:13;8.40;99.90
8860;DHT22;4466;50.948;4.832;2023-12-20T13:15:39;8.40;99.90
8860;DHT22;4466;50.948;4.832;2023-12-20T13:18:04;8.40;99.90
8860;DHT22;4466;50.948;4.832;2023-12-20T13:20:35;8.30;99.90
8860;DHT22;4466;50.948;4.832;2023-12-20T13:23:00;8.30;99.90
8860;DHT22;4466;50.948;4.832;2023-12-20T13:25:26;8.40;99.90
8860;DHT22;4466;50.948;4.832;2023-12-20T13:27:53;8.40;99.90
8860;DHT22;4466;50.948;4.832;2023-12-20T13:30:18;8.50;99.90
8860;DHT22;4466;50.948;4.832;2023-12-20T13:32:44;8.50;99.90
8860;DHT22;4466;50.948;4.832;2023-12-20T13:35:10;8.50;99.90
8860;DHT22;4466;50.948;4.832;2023-12-20T13:37:35;8.60;99.90
8860;DHT22;4466;50.948;4.832;2023-12-20T13:40:01;8.50;99.90
8860;DHT22;4466;50.948;4.832;2023-12-20T13:42:28;8.60;99.90
8860;DHT22;4466;50.948;4.832;2023-12-20T13:44:54;8.50;99.90
8860;DHT22;4466;50.948;4.832;2023-12-20T13:47:20;8.50;99.90
8860;DHT22;4466;50.948;4.832;2023-12-20T13:49:45;8.60;99.90
8860;DHT22;4466;50.948;4.832;2023-12-20T13:52:11;8.50;99.90
8860;DHT22;4466;50.948;4.832;2023-12-20T13:54:37;8.50;99.90
8860;DHT22;4466;50.948;4.832;2023-12-20T13:57:03;8.60;99.90
8860;DHT22;4466;50.948;4.832;2023-12-20T13:59:29;8.50;99.90
8860;DHT22;4466;50.948;4.832;2023-12-20T14:01:55;8.60;99.90
8860;DHT22;4466;50.948;4.832;2023-12-20T14:04:22;8.60;99.90
8860;DHT22;4466;50.948;4.832;2023-12-20T14:06:48;8.70;99.90
8860;DHT22;4466;50.948;4.832;2023-12-20T14:09:16;8.70;99.90
8860;DHT22;4466;50.948;4.832;2023-12-20T14:11:42;8.70;99.90
8860;DHT22;4466;50.948;4.832;2023-12-20T14:14:08;8.70;99.90
8860;DHT22;4466;50.948;4.832;2023-12-20T14:16:34;8.80;99.90
8860;DHT22;4466;50.948;4.832;2023-12-20T14:19:03;8.70;99.90
8860;DHT22;4466;50.948;4.832;2023-12-20T14:21:33;8.70;99.90
8860;DHT22;4466;50.948;4.832;2023-12-20T14:23:59;8.70;99.90
8860;DHT22;4466;50.948;4.832;2023-12-20T14:26:25;8.70;99.90
8860;DHT22;4466;50.948;4.832;2023-12-20T14:28:51;8.70;99.90
8860;DHT22;4466;50.948;4.832;2023-12-20T14:31:16;8.70;99.90
8860;DHT22;4466;50.948;4.832;2023-12-20T14:33:42;8.70;99.90
8860;DHT22;4466;50.948;4.832;2023-12-20T14:36:08;8.80;99.90
8860;DHT22;4466;50.948;4.832;2023-12-20T14:38:34;8.80;99.90
8860;DHT22;4466;50.948;4.832;2023-12-20T14:40:59;8.80;99.90
8860;DHT22;4466;50.948;4.832;2023-12-20T14:43:26;8.80;99.90
8860;DHT22;4466;50.948;4.832;2023-12-20T14:45:52;8.90;99.90
8860;DHT22;4466;50.948;4.832;2023-12-20T14:48:18;8.90;99.90
8860;DHT22;4466;50.948;4.832;2023-12-20T14:50:44;8.90;99.90
8860;DHT22;4466;50.948;4.832;2023-12-20T14:53:12;8.90;99.90
8860;DHT22;4466;50.948;4.832;2023-12-20T14:55:37;8.90;99.90
8860;DHT22;4466;50.948;4.832;2023-12-20T14:58:04;8.90;99.90
8860;DHT22;4466;50.948;4.832;2023-12-20T15:00:30;8.90;99.90
8860;DHT22;4466;50.948;4.832;2023-12-20T15:02:56;8.90;99.90
8860;DHT22;4466;50.948;4.832;2023-12-20T15:05:21;8.90;99.90
8860;DHT22;4466;50.948;4.832;2023-12-20T15:07:47;8.90;99.90
8860;DHT22;4466;50.948;4.832;2023-12-20T15:10:13;8.90;99.90
8860;DHT22;4466;50.948;4.832;2023-12-20T15:12:39;8.90;99.90
8860;DHT22;4466;50.948;4.832;2023-12-20T15:15:05;8.90;99.90
8860;DHT22;4466;50.948;4.832;2023-12-20T15:17:31;8.90;99.90
8860;DHT22;4466;50.948;4.832;2023-12-20T15:19:57;8.90;99.90
8860;DHT22;4466;50.948;4.832;2023-12-20T15:22:22;8.90;99.90
8860;DHT22;4466;50.948;4.832;2023-12-20T15:24:49;8.90;99.90
8860;DHT22;4466;50.948;4.832;2023-12-20T15:27:16;8.90;99.90
8860;DHT22;4466;50.948;4.832;2023-12-20T15:29:43;8.90;99.90
8860;DHT22;4466;50.948;4.832;2023-12-20T15:32:09;8.90;99.90
8860;DHT22;4466;50.948;4.832;2023-12-20T15:34:34;8.90;99.90
8860;DHT22;4466;50.948;4.832;2023-12-20T15:37:00;8.90;99.90
8860;DHT22;4466;50.948;4.832;2023-12-20T15:39:25;8.90;99.90
8860;DHT22;4466;50.948;4.832;2023-12-20T15:41:51;8.90;99.90
8860;DHT22;4466;50.948;4.832;2023-12-20T15:44:17;8.90;99.90
8860;DHT22;4466;50.948;4.832;2023-12-20T15:46:43;8.90;99.90
8860;DHT22;4466;50.948;4.832;2023-12-20T15:49:09;8.90;99.90
8860;DHT22;4466;50.948;4.832;2023-12-20T15:51:37;8.90;99.90
8860;DHT22;4466;50.948;4.832;2023-12-20T15:54:03;8.90;99.90
8860;DHT22;4466;50.948;4.832;2023-12-20T15:56:33;9.00;99.90
8860;DHT22;4466;50.948;4.832;2023-12-20T15:58:59;9.00;99.90
8860;DHT22;4466;50.948;4.832;2023-12-20T16:01:25;9.00;99.90
8860;DHT22;4466;50.948;4.832;2023-12-20T16:03:51;9.00;99.90
8860;DHT22;4466;50.948;4.832;2023-12-20T16:06:16;9.00;99.90
8860;DHT22;4466;50.948;4.832;2023-12-20T16:08:43;9.00;99.90
8860;DHT22;4466;50.948;4.832;2023-12-20T16:11:08;9.00;99.90
8860;DHT22;4466;50.948;4.832;2023-12-20T16:13:34;9.00;99.90
8860;DHT22;4466;50.948;4.832;2023-12-20T16:16:04;9.00;99.90
8860;DHT22;4466;50.948;4.832;2023-12-20T16:18:30;9.00;99.90
8860;DHT22;4466;50.948;4.832;2023-12-20T16:20:56;9.00;99.90
8860;DHT22;4466;50.948;4.832;2023-12-20T16:23:23;9.00;99.90
8860;DHT22;4466;50.948;4.832;2023-12-20T16:25:49;9.00;99.90
8860;DHT22;4466;50.948;4.832;2023-12-20T16:28:15;9.00;99.90
8860;DHT22;4466;50.948;4.832;2023-12-20T16:30:41;9.00;99.90
8860;DHT22;4466;50.948;4.832;2023-12-20T16:33:06;9.00;99.90